createdAt,value
2016-07-23T00:02:24.138Z,1012.48
2016-07-23T00:05:37.813Z,1012.5
2016-07-23T00:08:51.364Z,1012.46
2016-07-23T00:12:05.087Z,1012.52
2016-07-23T00:15:18.775Z,1012.42
2016-07-23T00:18:32.135Z,1012.44
2016-07-23T00:21:49.935Z,1012.6
2016-07-23T00:24:54.857Z,1012.56
2016-07-23T00:28:08.619Z,1012.64
2016-07-23T00:31:22.369Z,1012.64
2016-07-23T00:34:35.951Z,1012.56
2016-07-23T00:37:53.389Z,1012.52
2016-07-23T00:40:58.181Z,1012.56
2016-07-23T00:44:11.808Z,1012.62
2016-07-23T00:47:25.385Z,1012.7
2016-07-23T00:50:39.127Z,1012.66
2016-07-23T00:53:52.536Z,1012.64
2016-07-23T00:57:06.258Z,1012.56
2016-07-23T01:00:20.051Z,1012.64
2016-07-23T01:03:33.550Z,1012.68
2016-07-23T01:06:51.148Z,1012.66
2016-07-23T01:09:56.032Z,1012.62
2016-07-23T01:13:09.591Z,1012.64
2016-07-23T01:16:23.229Z,1012.52
2016-07-23T01:19:34.242Z,1012.48
2016-07-23T01:22:51.844Z,1012.42
2016-07-23T01:25:56.737Z,1012.48
2016-07-23T01:29:10.305Z,1012.48
2016-07-23T01:32:23.961Z,1012.5
2016-07-23T01:35:37.379Z,1012.38
2016-07-23T01:38:50.957Z,1012.42
2016-07-23T01:42:04.523Z,1012.4
2016-07-23T01:45:18.156Z,1012.36
2016-07-23T01:48:31.790Z,1012.34
2016-07-23T01:51:49.381Z,1012.36
2016-07-23T01:54:54.307Z,1012.3
2016-07-23T01:58:08.072Z,1012.32
2016-07-23T02:01:21.720Z,1012.3
2016-07-23T02:04:35.271Z,1012.3
2016-07-23T02:07:52.844Z,1012.4
2016-07-23T02:10:57.862Z,1012.38
2016-07-23T02:14:11.344Z,1012.46
2016-07-23T02:17:24.805Z,1012.24
2016-07-23T02:20:38.352Z,1012.34
2016-07-23T02:23:51.887Z,1012.28
2016-07-23T02:27:05.527Z,1012.22
2016-07-23T02:30:18.965Z,1012.26
2016-07-23T02:33:32.612Z,1012.16
2016-07-23T02:36:50.240Z,1012.24
2016-07-23T02:39:55.066Z,1012.1
2016-07-23T02:43:08.711Z,1012.26
2016-07-23T02:46:22.441Z,1012.26
2016-07-23T02:49:36.000Z,1012.24
2016-07-23T02:52:53.465Z,1012.18
2016-07-23T02:55:58.201Z,1012.18
2016-07-23T02:59:11.710Z,1012.22
2016-07-23T03:02:25.299Z,1012.3
2016-07-23T03:05:37.811Z,1012.24
2016-07-23T03:08:52.412Z,1012.34
2016-07-23T03:12:06.159Z,1012.28
2016-07-23T03:15:19.286Z,1012.32
2016-07-23T03:18:32.922Z,1012.38
2016-07-23T03:21:50.290Z,1012.4
2016-07-23T03:24:55.085Z,1012.38
2016-07-23T03:28:08.511Z,1012.32
2016-07-23T03:31:22.020Z,1012.34
2016-07-23T03:34:35.608Z,1012.34
2016-07-23T03:37:53.104Z,1012.32
2016-07-23T03:40:57.916Z,1012.34
2016-07-23T03:44:11.246Z,1012.34
2016-07-23T03:47:24.659Z,1012.32
2016-07-23T03:50:38.212Z,1012.4
2016-07-23T03:53:51.713Z,1012.36
2016-07-23T03:57:05.194Z,1012.42
2016-07-23T04:00:18.524Z,1012.38
2016-07-23T04:03:32.250Z,1012.46
2016-07-23T04:06:49.791Z,1012.38
2016-07-23T04:09:54.615Z,1012.5
2016-07-23T04:13:08.158Z,1012.46
2016-07-23T04:16:21.716Z,1012.56
2016-07-23T04:19:35.171Z,1012.48
2016-07-23T04:22:52.588Z,1012.38
2016-07-23T04:25:57.346Z,1012.5
2016-07-23T04:29:10.984Z,1012.54
2016-07-23T04:32:24.262Z,1012.62
2016-07-23T04:35:37.757Z,1012.4
2016-07-23T04:38:51.297Z,1012.46
2016-07-23T04:42:04.795Z,1012.52
2016-07-23T04:45:18.158Z,1012.58
2016-07-23T04:48:31.556Z,1012.58
2016-07-23T04:51:49.034Z,1012.58
2016-07-23T04:54:53.810Z,1012.58
2016-07-23T04:58:07.314Z,1012.6
2016-07-23T05:01:20.891Z,1012.6
2016-07-23T05:04:34.459Z,1012.64
2016-07-23T05:07:53.094Z,1012.6
2016-07-23T05:10:56.792Z,1012.54
2016-07-23T05:14:10.014Z,1012.58
2016-07-23T05:17:23.489Z,1012.52
2016-07-23T05:20:37.381Z,1012.5
2016-07-23T05:23:51.076Z,1012.54
2016-07-23T05:27:04.941Z,1012.5
2016-07-23T05:30:18.556Z,1012.48
2016-07-23T05:33:32.246Z,1012.46
2016-07-23T05:36:49.766Z,1012.32
2016-07-23T05:39:54.924Z,1012.5
2016-07-23T05:43:08.764Z,1012.44
2016-07-23T05:46:22.802Z,1012.4
2016-07-23T05:49:36.857Z,1012.52
2016-07-23T05:52:50.799Z,1012.46
2016-07-23T05:56:04.542Z,1012.52
2016-07-23T05:59:18.482Z,1012.48
2016-07-23T06:02:32.223Z,1012.54
2016-07-23T06:05:50.462Z,1012.48
2016-07-23T06:08:55.791Z,1012.54
2016-07-23T06:12:09.810Z,1012.56
2016-07-23T06:15:23.849Z,1012.48
2016-07-23T06:18:38.129Z,1012.52
2016-07-23T06:21:52.371Z,1012.56
2016-07-23T06:25:06.457Z,1012.54
2016-07-23T06:28:20.606Z,1012.6
2016-07-23T06:31:34.808Z,1012.46
2016-07-23T06:34:53.105Z,1012.5
2016-07-23T06:37:58.612Z,1012.52
2016-07-23T06:41:11.995Z,1012.32
2016-07-23T06:44:26.461Z,1012.36
2016-07-23T06:47:44.883Z,1012.4
2016-07-23T06:50:54.618Z,1012.36
2016-07-23T06:54:00.605Z,1012.3
2016-07-23T06:57:15.281Z,1012.28
2016-07-23T07:00:30.150Z,1012.22
2016-07-23T07:03:48.892Z,1012.16
2016-07-23T07:06:54.857Z,1012.26
2016-07-23T07:10:09.790Z,1012.16
2016-07-23T07:13:24.610Z,1012.14
2016-07-23T07:16:39.563Z,1012.24
2016-07-23T07:19:54.253Z,1012.26
2016-07-23T07:23:08.800Z,1012.12
2016-07-23T07:26:23.748Z,1012.2
2016-07-23T07:29:38.699Z,1012.16
2016-07-23T07:32:53.659Z,1012.12
2016-07-23T07:36:08.810Z,1012.22
2016-07-23T07:39:23.946Z,1012.14
2016-07-23T07:42:38.871Z,1012.2
2016-07-23T07:45:54.268Z,1012.12
2016-07-23T07:49:09.604Z,1012.14
2016-07-23T07:52:24.970Z,1012.2
2016-07-23T07:55:40.147Z,1012.2
2016-07-23T07:58:54.935Z,1012.3
2016-07-23T08:02:09.981Z,1012.32
2016-07-23T08:05:24.969Z,1012.34
2016-07-23T08:08:39.932Z,1012.34
2016-07-23T08:11:54.818Z,1012.32
2016-07-23T08:15:09.564Z,1012.24
2016-07-23T08:18:24.642Z,1012.22
2016-07-23T08:21:39.636Z,1012.28
2016-07-23T08:24:54.548Z,1012.18
2016-07-23T08:28:09.459Z,1012.34
2016-07-23T08:31:24.536Z,1012.24
2016-07-23T08:34:39.493Z,1012.34
2016-07-23T08:37:54.370Z,1012.26
2016-07-23T08:41:08.289Z,1012.38
2016-07-23T08:44:24.138Z,1012.38
2016-07-23T08:47:39.294Z,1012.44
2016-07-23T08:50:54.415Z,1012.4
2016-07-23T08:54:09.489Z,1012.42
2016-07-23T08:57:24.361Z,1012.42
2016-07-23T09:00:39.028Z,1012.48
2016-07-23T09:03:53.698Z,1012.46
2016-07-23T09:07:08.854Z,1012.42
2016-07-23T09:10:23.825Z,1012.34
2016-07-23T09:13:38.851Z,1012.44
2016-07-23T09:16:53.949Z,1012.48
2016-07-23T09:20:09.254Z,1012.4
2016-07-23T09:23:24.313Z,1012.38
2016-07-23T09:26:38.266Z,1012.44
2016-07-23T09:29:54.093Z,1012.54
2016-07-23T09:33:08.845Z,1012.52
2016-07-23T09:36:23.103Z,1012.4
2016-07-23T09:39:37.562Z,1012.56
2016-07-23T09:42:52.230Z,1012.52
2016-07-23T09:46:07.023Z,1012.48
2016-07-23T09:49:21.867Z,1012.58
2016-07-23T09:52:36.757Z,1012.56
2016-07-23T09:55:51.365Z,1012.58
2016-07-23T09:59:05.744Z,1012.62
2016-07-23T10:02:20.232Z,1012.66
2016-07-23T10:05:35.038Z,1012.68
2016-07-23T10:08:53.491Z,1012.62
2016-07-23T10:11:59.457Z,1012.6
2016-07-23T10:15:13.932Z,1012.64
2016-07-23T10:18:28.452Z,1012.68
2016-07-23T10:21:46.528Z,1012.58
2016-07-23T10:24:52.393Z,1012.64
2016-07-23T10:28:07.071Z,1012.66
2016-07-23T10:31:21.568Z,1012.64
2016-07-23T10:34:36.261Z,1012.64
2016-07-23T10:37:54.669Z,1012.54
2016-07-23T10:41:00.765Z,1012.52
2016-07-23T10:44:15.394Z,1012.66
2016-07-23T10:47:30.046Z,1012.56
2016-07-23T10:50:48.524Z,1012.54
2016-07-23T10:53:54.620Z,1012.54
2016-07-23T10:57:08.664Z,1012.5
2016-07-23T11:00:23.007Z,1012.52
2016-07-23T11:03:37.194Z,1012.54
2016-07-23T11:06:51.403Z,1012.52
2016-07-23T11:10:05.823Z,1012.64
2016-07-23T11:13:19.957Z,1012.6
2016-07-23T11:16:34.080Z,1012.64
2016-07-23T11:19:52.406Z,1012.64
2016-07-23T11:22:57.877Z,1012.7
2016-07-23T11:26:11.691Z,1012.84
2016-07-23T11:29:25.262Z,1012.84
2016-07-23T11:32:38.213Z,1012.76
2016-07-23T11:35:52.125Z,1012.76
2016-07-23T11:39:06.095Z,1012.7
2016-07-23T11:42:19.705Z,1012.64
2016-07-23T11:45:33.044Z,1012.68
2016-07-23T11:48:50.424Z,1012.8
2016-07-23T11:51:56.068Z,1012.78
2016-07-23T11:55:09.963Z,1012.72
2016-07-23T11:58:23.649Z,1012.8
2016-07-23T12:01:37.298Z,1012.76
2016-07-23T12:04:51.401Z,1012.66
2016-07-23T12:08:05.704Z,1012.68
2016-07-23T12:11:20.214Z,1012.62
2016-07-23T12:14:34.679Z,1012.68
2016-07-23T12:17:52.814Z,1012.58
2016-07-23T12:20:58.631Z,1012.58
2016-07-23T12:24:12.640Z,1012.58
2016-07-23T12:27:26.523Z,1012.5
2016-07-23T12:30:40.385Z,1012.46
2016-07-23T12:33:54.071Z,1012.42
2016-07-23T12:37:07.711Z,1012.44
2016-07-23T12:40:20.983Z,1012.52
2016-07-23T12:43:34.417Z,1012.5
2016-07-23T12:46:52.215Z,1012.58
2016-07-23T12:49:57.993Z,1012.5
2016-07-23T12:53:11.884Z,1012.5
2016-07-23T12:56:24.293Z,1012.54
2016-07-23T12:59:38.738Z,1012.58
2016-07-23T13:02:53.153Z,1012.54
2016-07-23T13:06:07.599Z,1012.58
2016-07-23T13:09:22.031Z,1012.54
2016-07-23T13:12:36.603Z,1012.48
2016-07-23T13:15:54.548Z,1012.42
2016-07-23T13:19:00.340Z,1012.54
2016-07-23T13:22:13.710Z,1012.46
2016-07-23T13:25:28.230Z,1012.5
2016-07-23T13:28:46.424Z,1012.46
2016-07-23T13:31:52.211Z,1012.42
2016-07-23T13:35:06.687Z,1012.32
2016-07-23T13:38:17.969Z,1012.3
2016-07-23T13:41:32.122Z,1012.3
2016-07-23T13:44:50.208Z,1012.24
2016-07-23T13:47:55.947Z,1012.24
2016-07-23T13:51:08.976Z,1012.22
2016-07-23T13:54:24.746Z,1012.14
2016-07-23T13:57:39.234Z,1012.34
2016-07-23T14:00:53.519Z,1012.14
2016-07-23T14:04:07.890Z,1012.22
2016-07-23T14:07:21.035Z,1012.28
2016-07-23T14:10:33.020Z,1012.24
2016-07-23T14:13:52.558Z,1012.24
2016-07-23T14:16:58.370Z,1012.22
2016-07-23T14:20:12.656Z,1012.26
2016-07-23T14:23:26.683Z,1012.3
2016-07-23T14:26:40.962Z,1012.32
2016-07-23T14:29:52.522Z,1012.18
2016-07-23T14:33:07.006Z,1012.24
2016-07-23T14:36:21.104Z,1012.18
2016-07-23T14:39:35.903Z,1012.26
2016-07-23T14:42:51.753Z,1012.26
2016-07-23T14:45:57.690Z,1012.24
2016-07-23T14:49:11.812Z,1012.22
2016-07-23T14:52:25.930Z,1012.04
2016-07-23T14:55:40.900Z,1012.06
2016-07-23T14:58:52.562Z,1012.12
2016-07-23T15:02:08.016Z,1012.22
2016-07-23T15:05:22.532Z,1012.12
2016-07-23T15:08:36.931Z,1012.04
2016-07-23T15:11:51.181Z,1012.12
2016-07-23T15:15:05.667Z,1012
2016-07-23T15:18:20.500Z,1012
2016-07-23T15:21:33.883Z,1012.02
2016-07-23T15:24:53.519Z,1012.02
2016-07-23T15:27:59.377Z,1011.94
2016-07-23T15:31:13.905Z,1011.88
2016-07-23T15:34:28.229Z,1011.96
2016-07-23T15:37:46.583Z,1011.96
2016-07-23T15:40:52.444Z,1011.92
2016-07-23T15:44:06.975Z,1011.9
2016-07-23T15:47:21.756Z,1011.94
2016-07-23T15:50:35.033Z,1011.96
2016-07-23T15:53:54.631Z,1011.9
2016-07-23T15:57:00.459Z,1011.94
2016-07-23T16:00:15.257Z,1011.88
2016-07-23T16:03:29.734Z,1011.94
2016-07-23T16:06:48.282Z,1011.88
2016-07-23T16:09:54.289Z,1011.94
2016-07-23T16:13:08.795Z,1011.88
2016-07-23T16:16:22.998Z,1011.96
2016-07-23T16:19:37.404Z,1011.98
2016-07-23T16:22:53.566Z,1011.96
2016-07-23T16:25:59.417Z,1011.92
2016-07-23T16:29:13.582Z,1011.94
2016-07-23T16:32:27.955Z,1012
2016-07-23T16:35:46.518Z,1011.9
2016-07-23T16:38:52.089Z,1012.02
2016-07-23T16:42:06.813Z,1011.88
2016-07-23T16:45:21.310Z,1011.96
2016-07-23T16:48:35.683Z,1012
2016-07-23T16:51:53.848Z,1012.06
2016-07-23T16:54:59.730Z,1012.12
2016-07-23T16:58:13.415Z,1012.18
2016-07-23T17:01:27.224Z,1012.2
2016-07-23T17:04:45.487Z,1012.06
2016-07-23T17:07:51.073Z,1012.06
2016-07-23T17:11:04.767Z,1012.02
2016-07-23T17:14:18.674Z,1012.04
2016-07-23T17:17:32.559Z,1012
2016-07-23T17:20:50.604Z,1012.04
2016-07-23T17:23:56.374Z,1012.02
2016-07-23T17:27:09.918Z,1012.14
2016-07-23T17:30:23.722Z,1012.08
2016-07-23T17:33:37.638Z,1012.02
2016-07-23T17:36:51.677Z,1012.14
2016-07-23T17:40:05.301Z,1012
2016-07-23T17:43:19.003Z,1012
2016-07-23T17:46:32.871Z,1012.16
2016-07-23T17:49:50.498Z,1012.2
2016-07-23T17:52:56.023Z,1012.18
2016-07-23T17:56:10.280Z,1012.08
2016-07-23T17:59:24.335Z,1012.1
2016-07-23T18:02:38.521Z,1012.12
2016-07-23T18:05:52.498Z,1012.22
2016-07-23T18:09:06.609Z,1012.22
2016-07-23T18:12:20.321Z,1012.28
2016-07-23T18:15:34.270Z,1012.36
2016-07-23T18:18:52.100Z,1012.36
2016-07-23T18:21:57.755Z,1012.36
2016-07-23T18:25:12.224Z,1012.34
2016-07-23T18:28:26.414Z,1012.4
2016-07-23T18:31:40.558Z,1012.34
2016-07-23T18:34:54.298Z,1012.44
2016-07-23T18:38:08.151Z,1012.46
2016-07-23T18:41:21.799Z,1012.44
2016-07-23T18:44:35.233Z,1012.52
2016-07-23T18:47:52.872Z,1012.56
2016-07-23T18:50:58.331Z,1012.52
2016-07-23T18:54:12.347Z,1012.48
2016-07-23T18:57:26.260Z,1012.56
2016-07-23T19:00:39.922Z,1012.56
2016-07-23T19:03:54.067Z,1012.44
2016-07-23T19:07:07.396Z,1012.42
2016-07-23T19:10:21.228Z,1012.44
2016-07-23T19:13:35.175Z,1012.6
2016-07-23T19:16:52.957Z,1012.52
2016-07-23T19:19:58.393Z,1012.74
2016-07-23T19:23:12.403Z,1012.74
2016-07-23T19:26:26.423Z,1012.9
2016-07-23T19:29:40.322Z,1012.8
2016-07-23T19:32:53.156Z,1013
2016-07-23T19:36:07.015Z,1012.9
2016-07-23T19:39:22.285Z,1013.07
2016-07-23T19:42:36.521Z,1013.06
2016-07-23T19:45:54.554Z,1013.07
2016-07-23T19:49:00.074Z,1013.07
2016-07-23T19:52:14.108Z,1013.13
2016-07-23T19:55:27.984Z,1013.11
2016-07-23T19:58:46.066Z,1013.15
2016-07-23T20:01:51.301Z,1013.21
2016-07-23T20:05:05.621Z,1013.21
2016-07-23T20:08:19.499Z,1013.31
2016-07-23T20:11:33.665Z,1013.35
2016-07-23T20:14:51.838Z,1013.29
2016-07-23T20:17:57.303Z,1013.29
2016-07-23T20:21:11.350Z,1013.25
2016-07-23T20:24:25.199Z,1013.33
2016-07-23T20:27:39.280Z,1013.33
2016-07-23T20:30:53.129Z,1013.33
2016-07-23T20:34:07.356Z,1013.29
2016-07-23T20:37:21.437Z,1013.33
2016-07-23T20:40:35.534Z,1013.33
2016-07-23T20:43:53.257Z,1013.37
2016-07-23T20:46:58.506Z,1013.31
2016-07-23T20:50:12.425Z,1013.41
2016-07-23T20:53:26.533Z,1013.47
2016-07-23T20:56:40.793Z,1013.55
2016-07-23T20:59:54.910Z,1013.63
2016-07-23T21:03:08.717Z,1013.57
2016-07-23T21:06:22.595Z,1013.57
2016-07-23T21:09:36.648Z,1013.51
2016-07-23T21:12:54.539Z,1013.59
2016-07-23T21:15:59.744Z,1013.61
2016-07-23T21:19:13.212Z,1013.47
2016-07-23T21:22:27.513Z,1013.59
2016-07-23T21:25:45.344Z,1013.55
2016-07-23T21:28:54.552Z,1013.55
2016-07-23T21:31:59.745Z,1013.55
2016-07-23T21:35:13.188Z,1013.67
2016-07-23T21:38:26.889Z,1013.67
2016-07-23T21:41:40.337Z,1013.57
2016-07-23T21:44:53.678Z,1013.51
2016-07-23T21:48:07.051Z,1013.59
2016-07-23T21:51:20.755Z,1013.67
2016-07-23T21:54:33.773Z,1013.63
2016-07-23T21:57:51.464Z,1013.67
2016-07-23T22:00:56.594Z,1013.61
2016-07-23T22:04:10.229Z,1013.59
2016-07-23T22:07:23.197Z,1013.47
2016-07-23T22:10:36.463Z,1013.43
2016-07-23T22:13:53.745Z,1013.43
2016-07-23T22:16:58.821Z,1013.59
2016-07-23T22:20:11.961Z,1013.57
2016-07-23T22:23:25.686Z,1013.61
2016-07-23T22:26:39.145Z,1013.55
2016-07-23T22:29:52.119Z,1013.47
2016-07-23T22:33:03.905Z,1013.49
2016-07-23T22:36:17.584Z,1013.51
2016-07-23T22:39:31.369Z,1013.51
2016-07-23T22:42:49.255Z,1013.65
2016-07-23T22:45:54.439Z,1013.61
2016-07-23T22:49:07.995Z,1013.59
2016-07-23T22:52:22.151Z,1013.55
2016-07-23T22:55:35.634Z,1013.51
2016-07-23T22:58:53.170Z,1013.55
2016-07-23T23:01:58.365Z,1013.65
2016-07-23T23:05:12.058Z,1013.63
2016-07-23T23:08:25.405Z,1013.55
2016-07-23T23:11:38.876Z,1013.47
2016-07-23T23:14:52.311Z,1013.71
2016-07-23T23:18:05.881Z,1013.73
2016-07-23T23:21:19.497Z,1013.75
2016-07-23T23:24:32.454Z,1013.85
2016-07-23T23:27:47.040Z,1013.93
2016-07-23T23:30:52.321Z,1013.97
2016-07-23T23:34:05.873Z,1013.93
2016-07-23T23:37:17.707Z,1013.93
2016-07-23T23:40:32.566Z,1013.89
2016-07-23T23:43:50.543Z,1013.87
2016-07-23T23:46:55.587Z,1013.91
2016-07-23T23:50:09.603Z,1013.83
2016-07-23T23:53:23.282Z,1013.83
2016-07-23T23:56:36.991Z,1013.79
2016-07-23T23:59:53.320Z,1013.87
